createdAt,value
2022-11-18T00:00:11.344Z,14.97
2022-11-18T00:02:40.232Z,13.60
2022-11-18T00:05:09.075Z,19.33
2022-11-18T00:07:40.487Z,14.93
2022-11-18T00:10:09.608Z,18.73
2022-11-18T00:12:56.217Z,14.20
2022-11-18T00:15:31.594Z,14.17
2022-11-18T00:18:00.752Z,17.60
2022-11-18T00:20:29.512Z,14.10
2022-11-18T00:22:58.401Z,10.97
2022-11-18T00:25:28.086Z,9.80
2022-11-18T00:27:57.875Z,11.00
2022-11-18T00:30:28.302Z,11.80
2022-11-18T00:32:58.092Z,11.83
2022-11-18T00:35:29.980Z,9.20
2022-11-18T00:37:58.836Z,14.10
2022-11-18T00:40:29.992Z,14.57
2022-11-18T00:42:57.853Z,10.33
2022-11-18T00:45:28.296Z,13.87
2022-11-18T00:48:00.308Z,17.30
2022-11-18T00:50:29.055Z,10.60
2022-11-18T00:52:58.257Z,10.57
2022-11-18T00:55:29.234Z,11.37
2022-11-18T00:57:58.274Z,13.37
2022-11-18T01:00:28.795Z,14.37
2022-11-18T01:02:58.167Z,17.33
2022-11-18T01:05:27.612Z,15.10
2022-11-18T01:07:56.656Z,17.27
2022-11-18T01:10:26.426Z,17.50
2022-11-18T01:13:12.513Z,12.00
2022-11-18T01:15:47.127Z,16.57
2022-11-18T01:18:15.897Z,18.90
2022-11-18T01:20:45.185Z,10.87
2022-11-18T01:23:14.613Z,13.70
2022-11-18T01:25:46.639Z,13.70
2022-11-18T01:28:20.327Z,16.07
2022-11-18T01:30:53.587Z,17.30
2022-11-18T01:33:22.633Z,12.73
2022-11-18T01:35:51.356Z,13.43
2022-11-18T01:38:20.271Z,17.97
2022-11-18T01:40:49.002Z,18.77
2022-11-18T01:43:20.266Z,14.33
2022-11-18T01:45:50.097Z,18.77
2022-11-18T01:48:25.358Z,17.13
2022-11-18T01:50:57.849Z,15.50
2022-11-18T01:53:30.659Z,18.20
2022-11-18T01:56:03.366Z,13.53
2022-11-18T01:58:37.071Z,13.77
2022-11-18T02:01:07.769Z,17.37
2022-11-18T02:03:38.878Z,18.53
2022-11-18T02:06:11.512Z,20.70
2022-11-18T02:08:40.651Z,20.03
2022-11-18T02:11:33.329Z,13.90
2022-11-18T02:14:04.465Z,12.27
2022-11-18T02:16:46.668Z,14.70
2022-11-18T02:19:39.673Z,13.57
2022-11-18T02:22:21.221Z,11.07
2022-11-18T02:24:57.711Z,12.67
2022-11-18T02:27:57.678Z,14.17
2022-11-18T02:30:30.734Z,11.53
2022-11-18T02:33:05.560Z,8.77
2022-11-18T02:35:40.889Z,20.63
2022-11-18T02:38:12.979Z,19.60
2022-11-18T02:40:45.890Z,20.90
2022-11-18T02:43:23.173Z,13.27
2022-11-18T02:45:57.942Z,17.70
2022-11-18T02:48:32.475Z,15.37
2022-11-18T02:51:03.279Z,12.33
2022-11-18T02:53:34.502Z,18.93
2022-11-18T02:56:04.739Z,21.10
2022-11-18T02:58:33.715Z,14.33
2022-11-18T03:01:04.067Z,9.90
2022-11-18T03:03:34.531Z,13.93
2022-11-18T03:06:15.162Z,14.43
2022-11-18T03:08:52.004Z,9.43
2022-11-18T03:11:24.512Z,11.03
2022-11-18T03:14:09.327Z,12.80
2022-11-18T03:16:45.813Z,18.07
2022-11-18T03:19:23.510Z,12.03
2022-11-18T03:22:03.721Z,10.87
2022-11-18T03:24:35.165Z,14.47
2022-11-18T03:27:12.200Z,15.63
2022-11-18T03:29:46.356Z,11.67
2022-11-18T03:32:21.035Z,12.77
2022-11-18T03:34:53.098Z,14.83
2022-11-18T03:37:24.365Z,20.50
2022-11-18T03:39:56.565Z,20.97
2022-11-18T03:42:30.515Z,10.57
2022-11-18T03:45:05.509Z,14.63
2022-11-18T03:47:40.864Z,15.80
2022-11-18T03:50:14.803Z,13.47
2022-11-18T03:52:44.872Z,22.77
2022-11-18T03:55:16.717Z,14.23
2022-11-18T03:57:51.785Z,12.13
2022-11-18T04:00:20.901Z,14.83
2022-11-18T04:02:53.629Z,10.27
2022-11-18T04:05:22.632Z,14.70
2022-11-18T04:07:57.697Z,12.57
2022-11-18T04:10:30.730Z,15.50
2022-11-18T04:13:06.444Z,18.30
2022-11-18T04:15:38.852Z,13.40
2022-11-18T04:18:09.918Z,15.67
2022-11-18T04:20:39.212Z,11.23
2022-11-18T04:23:08.768Z,14.30
2022-11-18T04:25:38.176Z,16.40
2022-11-18T04:28:07.564Z,16.57
2022-11-18T04:30:38.082Z,13.83
2022-11-18T04:33:08.310Z,18.77
2022-11-18T04:35:37.028Z,16.73
2022-11-18T04:38:05.763Z,16.47
2022-11-18T04:40:34.486Z,12.57
2022-11-18T04:43:03.185Z,13.63
2022-11-18T04:45:31.952Z,15.57
2022-11-18T04:48:03.739Z,13.93
2022-11-18T04:50:34.129Z,13.20
2022-11-18T04:53:05.590Z,12.60
2022-11-18T04:55:37.140Z,11.63
2022-11-18T04:58:05.919Z,12.90
2022-11-18T05:00:34.702Z,14.37
2022-11-18T05:03:03.511Z,14.73
2022-11-18T05:05:35.631Z,11.67
2022-11-18T05:08:04.296Z,14.97
2022-11-18T05:10:33.075Z,21.43
2022-11-18T05:13:00.767Z,15.47
2022-11-18T05:15:29.544Z,11.90
2022-11-18T05:17:58.533Z,13.13
2022-11-18T05:20:31.077Z,12.57
2022-11-18T05:23:01.325Z,11.40
2022-11-18T05:25:30.061Z,11.27
2022-11-18T05:27:58.793Z,12.40
2022-11-18T05:30:33.267Z,10.97
2022-11-18T05:33:01.921Z,16.83
2022-11-18T05:35:30.718Z,13.77
2022-11-18T05:38:02.881Z,11.57
2022-11-18T05:40:34.593Z,16.80
2022-11-18T05:43:11.182Z,12.87
2022-11-18T05:45:40.398Z,12.87
2022-11-18T05:48:09.198Z,13.53
2022-11-18T05:50:39.468Z,18.53
2022-11-18T05:53:09.538Z,20.03
2022-11-18T05:55:43.330Z,17.40
2022-11-18T05:58:12.077Z,12.73
2022-11-18T06:00:41.036Z,19.10
2022-11-18T06:03:14.063Z,20.90
2022-11-18T06:05:43.046Z,12.83
2022-11-18T06:08:15.179Z,12.23
2022-11-18T06:10:48.289Z,15.45
2022-11-18T06:13:19.392Z,12.17
2022-11-18T06:15:48.469Z,22.10
2022-11-18T06:18:21.422Z,12.93
2022-11-18T06:20:51.180Z,14.40
2022-11-18T06:23:22.823Z,11.63
2022-11-18T06:25:51.915Z,10.50
2022-11-18T06:28:21.659Z,16.90
2022-11-18T06:30:50.459Z,13.60
2022-11-18T06:33:19.339Z,16.03
2022-11-18T06:35:48.117Z,16.73
2022-11-18T06:38:16.923Z,14.03
2022-11-18T06:40:49.916Z,15.77
2022-11-18T06:43:36.166Z,13.33
2022-11-18T06:46:26.493Z,14.77
2022-11-18T06:48:56.599Z,17.30
2022-11-18T06:51:28.071Z,12.93
2022-11-18T06:53:59.909Z,18.13
2022-11-18T06:56:33.184Z,16.70
2022-11-18T06:59:01.992Z,15.33
2022-11-18T07:01:35.305Z,17.47
2022-11-18T07:04:04.620Z,24.57
2022-11-18T07:06:35.322Z,20.13
2022-11-18T07:09:07.229Z,13.47
2022-11-18T07:11:38.399Z,13.13
2022-11-18T07:14:07.200Z,17.53
2022-11-18T07:16:38.986Z,14.20
2022-11-18T07:19:11.572Z,13.83
2022-11-18T07:21:41.319Z,15.03
2022-11-18T07:24:13.155Z,11.20
2022-11-18T07:26:44.054Z,17.73
2022-11-18T07:29:13.646Z,17.63
2022-11-18T07:31:45.375Z,15.07
2022-11-18T07:34:16.253Z,13.23
2022-11-18T07:36:44.967Z,14.80
2022-11-18T07:39:13.702Z,12.03
2022-11-18T07:41:43.977Z,15.87
2022-11-18T07:44:13.578Z,20.43
2022-11-18T07:46:42.965Z,18.90
2022-11-18T07:49:13.202Z,14.10
2022-11-18T07:51:42.221Z,17.87
2022-11-18T07:54:12.330Z,22.23
2022-11-18T07:56:41.676Z,11.07
2022-11-18T07:59:21.119Z,21.97
2022-11-18T08:02:12.440Z,18.33
2022-11-18T08:04:41.405Z,20.77
2022-11-18T08:07:11.325Z,14.17
2022-11-18T08:09:40.104Z,17.43
2022-11-18T08:12:09.173Z,18.50
2022-11-18T08:14:39.308Z,17.47
2022-11-18T08:17:08.102Z,19.07
2022-11-18T08:19:36.954Z,24.57
2022-11-18T08:22:05.862Z,22.70
2022-11-18T08:24:34.833Z,19.30
2022-11-18T08:27:03.533Z,17.13
2022-11-18T08:29:32.303Z,17.83
2022-11-18T08:32:04.976Z,16.57
2022-11-18T08:34:33.852Z,16.07
2022-11-18T08:37:02.704Z,16.63
2022-11-18T08:39:31.366Z,16.33
2022-11-18T08:42:00.257Z,15.37
2022-11-18T08:44:29.146Z,13.00
2022-11-18T08:46:58.038Z,12.67
2022-11-18T08:49:32.135Z,15.47
2022-11-18T08:52:01.283Z,15.00
2022-11-18T08:54:29.893Z,17.47
2022-11-18T08:56:58.730Z,11.87
2022-11-18T08:59:28.630Z,14.93
2022-11-18T09:01:57.930Z,21.40
2022-11-18T09:04:28.261Z,14.23
2022-11-18T09:06:59.882Z,14.43
2022-11-18T09:09:28.536Z,17.93
2022-11-18T09:11:59.929Z,16.40
2022-11-18T09:17:17.089Z,16.30
2022-11-18T09:19:48.242Z,13.47
2022-11-18T09:22:17.109Z,13.97
2022-11-18T09:24:45.663Z,15.53
2022-11-18T09:27:17.416Z,15.33
2022-11-18T09:29:46.541Z,18.30
2022-11-18T09:32:15.720Z,25.00
2022-11-18T09:34:44.360Z,18.53
2022-11-18T09:37:14.810Z,14.90
2022-11-18T09:39:43.515Z,22.77
2022-11-18T09:42:31.189Z,18.03
2022-11-18T09:45:14.018Z,14.93
2022-11-18T09:47:44.380Z,21.00
2022-11-18T09:50:47.280Z,19.93
2022-11-18T09:53:16.538Z,15.53
2022-11-18T09:55:45.787Z,18.33
2022-11-18T09:58:19.463Z,14.70
2022-11-18T10:00:48.409Z,15.20
2022-11-18T10:03:25.307Z,14.30
2022-11-18T10:06:03.867Z,13.93
2022-11-18T10:08:41.228Z,18.80
2022-11-18T10:11:17.958Z,15.63
2022-11-18T10:13:58.487Z,17.43
2022-11-18T10:16:42.034Z,14.23
2022-11-18T10:19:21.260Z,13.77
2022-11-18T10:22:01.833Z,16.63
2022-11-18T10:24:36.965Z,12.67
2022-11-18T10:27:11.711Z,19.77
2022-11-18T10:29:40.374Z,17.13
2022-11-18T10:32:12.269Z,14.13
2022-11-18T10:34:49.211Z,10.97
2022-11-18T10:37:45.856Z,13.93
2022-11-18T10:40:28.737Z,12.47
2022-11-18T10:43:00.613Z,13.53
2022-11-18T10:45:31.778Z,13.03
2022-11-18T10:48:09.932Z,13.10
2022-11-18T10:50:40.143Z,14.33
2022-11-18T10:53:30.782Z,18.67
2022-11-18T10:56:02.611Z,11.97
2022-11-18T10:58:33.364Z,18.00
2022-11-18T11:01:10.075Z,11.47
2022-11-18T11:03:42.308Z,16.63
2022-11-18T11:06:38.903Z,12.77
2022-11-18T11:09:10.016Z,14.87
2022-11-18T11:11:43.598Z,14.53
2022-11-18T11:14:22.421Z,16.10
2022-11-18T11:17:02.770Z,14.50
2022-11-18T11:19:45.593Z,17.30
2022-11-18T11:22:14.607Z,15.03
2022-11-18T11:24:43.340Z,12.93
2022-11-18T11:30:40.766Z,14.20
2022-11-18T11:33:31.187Z,14.00
2022-11-18T11:36:17.838Z,13.73
2022-11-18T11:39:04.618Z,18.57
2022-11-18T11:41:46.330Z,14.53
2022-11-18T11:44:32.778Z,23.00
2022-11-18T11:47:30.150Z,17.63
2022-11-18T11:50:06.787Z,13.07
2022-11-18T11:52:43.435Z,18.67
2022-11-18T11:55:19.793Z,19.37
2022-11-18T11:58:08.003Z,14.53
2022-11-18T12:00:47.769Z,14.37
2022-11-18T12:03:46.060Z,18.60
2022-11-18T12:06:19.156Z,15.67
2022-11-18T12:08:58.040Z,15.30
2022-11-18T12:11:32.692Z,14.43
2022-11-18T12:14:05.337Z,17.57
2022-11-18T12:16:43.593Z,14.63
2022-11-18T12:19:15.388Z,17.73
2022-11-18T12:22:05.416Z,18.00
2022-11-18T12:24:38.553Z,14.63
2022-11-18T12:27:13.726Z,21.33
2022-11-18T12:29:53.999Z,17.47
2022-11-18T12:32:36.594Z,16.03
2022-11-18T12:35:23.153Z,14.43
2022-11-18T12:38:03.111Z,15.30
2022-11-18T12:40:50.595Z,15.73
2022-11-18T12:44:05.578Z,19.83
2022-11-18T12:46:51.570Z,17.77
2022-11-18T12:49:57.564Z,15.83
2022-11-18T12:52:52.667Z,19.77
2022-11-18T12:55:34.052Z,20.33
2022-11-18T12:58:02.606Z,17.63
2022-11-18T13:00:53.232Z,19.70
2022-11-18T13:03:28.960Z,16.47
2022-11-18T13:06:04.008Z,15.27
2022-11-18T13:08:34.097Z,19.10
2022-11-18T13:11:28.493Z,20.70
2022-11-18T13:14:16.802Z,16.63
2022-11-18T13:17:03.513Z,15.60
2022-11-18T13:19:32.452Z,15.67
2022-11-18T13:22:20.796Z,17.77
2022-11-18T13:24:52.436Z,14.77
2022-11-18T13:27:32.850Z,15.20
2022-11-18T13:30:08.506Z,19.40
2022-11-18T13:32:37.362Z,19.07
2022-11-18T13:35:14.564Z,16.93
2022-11-18T13:37:54.331Z,18.97
2022-11-18T13:40:27.388Z,20.40
2022-11-18T13:42:56.358Z,19.17
2022-11-18T13:45:31.258Z,17.13
2022-11-18T13:48:07.237Z,18.60
2022-11-18T13:50:57.136Z,21.23
2022-11-18T13:53:31.448Z,19.40
2022-11-18T13:56:04.973Z,19.27
2022-11-18T13:59:02.725Z,19.47
2022-11-18T14:01:29.888Z,16.80
2022-11-18T14:04:05.525Z,14.83
2022-11-18T14:06:36.362Z,23.07
2022-11-18T14:09:19.054Z,23.13
2022-11-18T14:12:02.055Z,14.10
2022-11-18T14:14:33.674Z,20.67
2022-11-18T14:17:19.037Z,19.80
2022-11-18T14:19:50.758Z,17.03
2022-11-18T14:22:21.885Z,17.87
2022-11-18T14:24:58.794Z,18.67
2022-11-18T14:27:40.034Z,20.47
2022-11-18T14:30:32.900Z,21.73
2022-11-18T14:33:21.404Z,26.00
2022-11-18T14:35:53.270Z,17.70
2022-11-18T14:41:14.719Z,20.87
2022-11-18T14:43:46.153Z,17.87
2022-11-18T14:46:18.983Z,17.23
2022-11-18T14:48:48.067Z,16.43
2022-11-18T14:51:18.202Z,21.20
2022-11-18T14:53:47.017Z,24.57
2022-11-18T14:56:21.777Z,23.57
2022-11-18T14:58:52.020Z,17.63
2022-11-18T15:01:23.768Z,16.97
2022-11-18T15:03:55.321Z,16.63
2022-11-18T15:06:25.267Z,19.27
2022-11-18T15:08:55.366Z,27.13
2022-11-18T15:11:24.076Z,18.77
2022-11-18T15:13:54.113Z,22.30
2022-11-18T15:16:25.201Z,19.80
2022-11-18T15:19:00.439Z,14.90
2022-11-18T15:21:29.470Z,24.63
2022-11-18T15:23:58.159Z,20.03
2022-11-18T15:26:29.055Z,18.77
2022-11-18T15:28:59.412Z,21.93
2022-11-18T15:31:28.630Z,27.53
2022-11-18T15:34:06.263Z,20.23
2022-11-18T15:36:35.508Z,18.73
2022-11-18T15:39:04.897Z,29.67
2022-11-18T15:41:33.562Z,24.43
2022-11-18T15:44:05.167Z,20.30
2022-11-18T15:46:34.481Z,23.70
2022-11-18T15:49:03.472Z,19.77
2022-11-18T15:51:33.337Z,23.90
2022-11-18T15:54:01.954Z,23.37
2022-11-18T15:56:31.798Z,27.57
2022-11-18T15:59:02.274Z,23.60
2022-11-18T16:01:34.009Z,34.30
2022-11-18T16:04:03.180Z,29.67
2022-11-18T16:06:32.409Z,30.97
2022-11-18T16:09:01.340Z,30.90
2022-11-18T16:11:47.880Z,28.30
2022-11-18T16:14:18.534Z,32.83
2022-11-18T16:16:50.306Z,29.53
2022-11-18T16:19:20.355Z,31.93
2022-11-18T16:21:51.161Z,29.93
2022-11-18T16:24:21.915Z,32.37
2022-11-18T16:26:51.281Z,32.47
2022-11-18T16:29:20.805Z,37.93
2022-11-18T16:31:53.014Z,35.03
2022-11-18T16:34:23.164Z,26.63
2022-11-18T16:36:54.686Z,27.00
2022-11-18T16:39:26.375Z,21.40
2022-11-18T16:42:02.247Z,23.33
2022-11-18T16:44:36.042Z,23.57
2022-11-18T16:47:13.699Z,24.47
2022-11-18T16:49:44.092Z,33.97
2022-11-18T16:52:13.052Z,24.40
2022-11-18T16:54:45.833Z,26.30
2022-11-18T16:57:15.135Z,28.83
2022-11-18T16:59:43.694Z,26.50
2022-11-18T17:02:15.170Z,27.90
2022-11-18T17:04:44.356Z,28.63
2022-11-18T17:07:13.301Z,26.77
2022-11-18T17:09:42.021Z,29.30
2022-11-18T17:12:10.860Z,26.63
2022-11-18T17:14:40.276Z,21.90
2022-11-18T17:17:09.179Z,23.97
2022-11-18T17:19:39.180Z,24.07
2022-11-18T17:22:07.910Z,29.13
2022-11-18T17:24:36.594Z,44.57
2022-11-18T17:27:05.230Z,28.10
2022-11-18T17:29:34.810Z,27.67
2022-11-18T17:32:03.628Z,35.80
2022-11-18T17:34:32.402Z,28.97
2022-11-18T17:37:06.849Z,32.67
2022-11-18T17:39:36.224Z,33.53
2022-11-18T17:42:19.011Z,32.90
2022-11-18T17:44:47.704Z,31.13
2022-11-18T17:47:16.556Z,29.90
2022-11-18T17:49:45.701Z,34.20
2022-11-18T17:52:15.685Z,35.63
2022-11-18T17:54:44.451Z,28.50
2022-11-18T17:57:13.045Z,28.40
2022-11-18T17:59:41.722Z,32.83
2022-11-18T18:02:12.918Z,41.03
2022-11-18T18:04:41.582Z,27.80
2022-11-18T18:07:10.364Z,34.50
2022-11-18T18:09:40.563Z,26.43
2022-11-18T18:12:23.357Z,33.57
2022-11-18T18:14:52.525Z,36.27
2022-11-18T18:17:21.216Z,35.57
2022-11-18T18:19:49.866Z,29.97
2022-11-18T18:22:20.495Z,34.07
2022-11-18T18:24:50.645Z,28.80
2022-11-18T18:27:19.401Z,32.53
2022-11-18T18:29:48.131Z,36.97
2022-11-18T18:32:16.940Z,28.90
2022-11-18T18:34:45.734Z,28.83
2022-11-18T18:37:15.269Z,35.33
2022-11-18T18:39:44.121Z,28.73
2022-11-18T18:42:14.324Z,31.57
2022-11-18T18:45:00.236Z,33.63
2022-11-18T18:47:29.152Z,37.70
2022-11-18T18:49:58.562Z,33.83
2022-11-18T18:52:27.995Z,31.97
2022-11-18T18:54:57.190Z,34.63
2022-11-18T18:57:30.776Z,35.73
2022-11-18T18:59:59.762Z,37.53
2022-11-18T19:02:28.764Z,44.17
2022-11-18T19:05:00.132Z,38.07
2022-11-18T19:07:31.380Z,29.53
2022-11-18T19:10:00.390Z,25.87
2022-11-18T19:12:51.739Z,27.47
2022-11-18T19:15:23.179Z,32.37
2022-11-18T19:17:52.218Z,27.30
2022-11-18T19:20:36.717Z,28.63
2022-11-18T19:23:10.572Z,30.53
2022-11-18T19:25:39.829Z,30.07
2022-11-18T19:28:11.549Z,36.33
2022-11-18T19:30:40.493Z,35.40
2022-11-18T19:33:09.174Z,32.17
2022-11-18T19:35:38.960Z,31.53
2022-11-18T19:38:07.731Z,27.83
2022-11-18T19:40:36.398Z,36.90
2022-11-18T19:43:05.223Z,34.00
2022-11-18T19:45:35.452Z,25.23
2022-11-18T19:48:04.553Z,26.60
2022-11-18T19:50:33.292Z,23.17
2022-11-18T19:53:22.770Z,22.20
2022-11-18T19:55:56.396Z,26.13
2022-11-18T19:58:28.542Z,20.00
2022-11-18T20:00:59.186Z,24.67
2022-11-18T20:03:29.902Z,27.90
2022-11-18T20:06:02.297Z,26.80
2022-11-18T20:08:33.702Z,25.30
2022-11-18T20:11:09.042Z,23.13
2022-11-18T20:13:38.874Z,23.53
2022-11-18T20:16:11.735Z,20.60
2022-11-18T20:18:40.861Z,26.90
2022-11-18T20:21:12.112Z,25.30
2022-11-18T20:23:40.974Z,26.00
2022-11-18T20:26:11.604Z,24.10
2022-11-18T20:28:42.430Z,26.70
2022-11-18T20:31:15.649Z,23.30
2022-11-18T20:33:49.451Z,27.67
2022-11-18T20:36:20.115Z,29.13
2022-11-18T20:38:51.411Z,26.33
2022-11-18T20:41:21.035Z,24.70
2022-11-18T20:43:50.347Z,25.30
2022-11-18T20:46:22.753Z,24.20
2022-11-18T20:48:51.820Z,25.63
2022-11-18T20:51:23.514Z,26.23
2022-11-18T20:53:53.319Z,26.40
2022-11-18T20:56:24.147Z,33.97
2022-11-18T20:58:53.370Z,29.77
2022-11-18T21:01:26.412Z,27.30
2022-11-18T21:03:59.552Z,30.07
2022-11-18T21:06:30.922Z,31.80
2022-11-18T21:09:01.541Z,31.00
2022-11-18T21:11:31.115Z,31.17
2022-11-18T21:14:22.975Z,32.77
2022-11-18T21:16:55.819Z,25.93
2022-11-18T21:19:26.639Z,35.23
2022-11-18T21:21:56.565Z,27.87
2022-11-18T21:24:28.728Z,27.47
2022-11-18T21:26:59.019Z,26.33
2022-11-18T21:29:29.401Z,32.57
2022-11-18T21:32:01.671Z,31.17
2022-11-18T21:34:30.794Z,29.83
2022-11-18T21:36:59.663Z,26.17
2022-11-18T21:39:29.197Z,29.13
2022-11-18T21:41:58.996Z,27.37
2022-11-18T21:44:28.964Z,27.00
2022-11-18T21:46:59.344Z,25.33
2022-11-18T21:49:28.495Z,32.80
2022-11-18T21:51:57.977Z,26.33
2022-11-18T21:54:26.779Z,25.63
2022-11-18T21:56:55.529Z,28.60
2022-11-18T21:59:24.373Z,28.57
2022-11-18T22:01:53.089Z,29.90
2022-11-18T22:04:40.733Z,33.57
2022-11-18T22:07:09.511Z,32.17
2022-11-18T22:09:38.540Z,29.60
2022-11-18T22:12:08.185Z,27.00
2022-11-18T22:14:37.098Z,27.10
2022-11-18T22:17:06.687Z,30.67
2022-11-18T22:19:36.783Z,29.20
2022-11-18T22:22:05.602Z,26.83
2022-11-18T22:24:34.296Z,26.63
2022-11-18T22:27:07.015Z,25.73
2022-11-18T22:29:38.664Z,27.43
2022-11-18T22:32:07.362Z,29.03
2022-11-18T22:34:37.355Z,28.60
2022-11-18T22:37:06.061Z,25.73
2022-11-18T22:39:34.912Z,27.60
2022-11-18T22:42:21.154Z,29.87
2022-11-18T22:44:49.794Z,22.80
2022-11-18T22:47:18.541Z,28.13
2022-11-18T22:49:52.129Z,29.53
2022-11-18T22:52:23.833Z,30.07
2022-11-18T22:54:52.532Z,24.47
2022-11-18T22:57:21.142Z,24.10
2022-11-18T22:59:49.831Z,19.70
2022-11-18T23:02:21.024Z,22.03
2022-11-18T23:04:51.297Z,33.20
2022-11-18T23:07:20.095Z,30.90
2022-11-18T23:09:48.834Z,25.90
2022-11-18T23:12:34.874Z,25.30
2022-11-18T23:15:06.069Z,26.13
2022-11-18T23:17:34.889Z,27.90
2022-11-18T23:20:05.713Z,29.20
2022-11-18T23:22:34.392Z,29.90
2022-11-18T23:25:03.041Z,28.30
2022-11-18T23:27:31.644Z,27.63
2022-11-18T23:30:00.332Z,26.27
2022-11-18T23:32:29.256Z,23.27
2022-11-18T23:34:58.757Z,31.17
2022-11-18T23:37:29.112Z,32.63
2022-11-18T23:40:01.099Z,29.07
2022-11-18T23:42:29.927Z,26.50
2022-11-18T23:45:05.414Z,24.07
2022-11-18T23:47:34.410Z,23.70
2022-11-18T23:50:04.081Z,26.27
2022-11-18T23:52:36.493Z,27.87
2022-11-18T23:55:05.376Z,29.80
2022-11-18T23:57:37.100Z,28.47
